Time;durP1;ratioP1;P1;durP2;ratioP2;P2;SDS_P1;SDS_P2;PMS_P1;PMS_P2;Temp;Humidity;BMP_temperature;BMP_pressure;BME280_temperature;BME280_humidity;BME280_pressure;Samples;Min_cycle;Max_cycle;Signal;HPM_P1;HPM_P2
2021/07/04 00:00:32;;;;;;;3.5;3.2;;;;;;;17.24;83.30762;937.1939;;;;
2021/07/04 00:02:58;;;;;;;3.7;3.3;;;;;;;17.26;83.31152;937.1445;;;;
2021/07/04 00:05:23;;;;;;;3.4;3.1;;;;;;;17.27;83.47559;937.15;;;;
2021/07/04 00:07:48;;;;;;;3.9;3.5;;;;;;;17.3;83.70215;937.1228;;;;
2021/07/04 00:10:14;;;;;;;4.6;3.8;;;;;;;17.34;83.38477;937.0698;;;;
2021/07/04 00:12:39;;;;;;;4.7;3.7;;;;;;;17.2;84.15918;937.064;;;;
2021/07/04 00:15:04;;;;;;;5.1;3.7;;;;;;;17.25;84.26074;937.0272;;;;
2021/07/04 00:17:32;;;;;;;5.1;3.4;;;;;;;17.24;83.69043;937.0185;;;;
2021/07/04 00:19:57;;;;;;;4.1;3.6;;;;;;;17.3;83.66602;936.9604;;;;
2021/07/04 00:22:25;;;;;;;4.2;3.1;;;;;;;17.26;82.91699;936.994;;;;
2021/07/04 00:24:50;;;;;;;3.4;3.1;;;;;;;17.22;82.7832;937.0149;;;;
2021/07/04 00:27:16;;;;;;;3.3;3;;;;;;;17.08;81.52734;936.9721;;;;
2021/07/04 00:29:42;;;;;;;3.4;3;;;;;;;16.99;81.67383;936.9933;;;;
2021/07/04 00:32:08;;;;;;;3.2;2.9;;;;;;;17.06;82.28711;936.9677;;;;
2021/07/04 00:34:33;;;;;;;5.2;3.5;;;;;;;17.11;82.98047;936.9885;;;;
2021/07/04 00:37:00;;;;;;;3.7;3.3;;;;;;;16.97;84.2998;936.9584;;;;
2021/07/04 00:39:25;;;;;;;5.4;3.4;;;;;;;16.92;84.23145;936.9022;;;;
2021/07/04 00:41:52;;;;;;;3.8;3.4;;;;;;;16.97;84.3457;936.8619;;;;
2021/07/04 00:44:17;;;;;;;4;3.6;;;;;;;16.98;84.12695;936.8448;;;;
2021/07/04 00:46:43;;;;;;;7;4.3;;;;;;;16.8;85.06543;936.8372;;;;
2021/07/04 00:49:08;;;;;;;4.8;3.8;;;;;;;16.71;85.32813;936.8594;;;;
2021/07/04 00:51:34;;;;;;;5.4;3.9;;;;;;;16.47;86.96875;936.8628;;;;
2021/07/04 00:53:59;;;;;;;6.7;4.3;;;;;;;16.55;86.79004;936.867;;;;
2021/07/04 00:56:26;;;;;;;4.9;4;;;;;;;16.68;86.22363;936.8254;;;;
2021/07/04 00:58:51;;;;;;;4.7;3.5;;;;;;;16.63;86.15332;936.8052;;;;
2021/07/04 01:01:19;;;;;;;4.2;3.7;;;;;;;16.72;86.18457;936.7742;;;;
2021/07/04 01:03:44;;;;;;;5.1;3.8;;;;;;;16.86;85.52832;936.6925;;;;
2021/07/04 01:06:10;;;;;;;4;3.7;;;;;;;16.93;85.53027;936.7378;;;;
2021/07/04 01:08:35;;;;;;;4.7;4.2;;;;;;;17.01;85.16406;936.6658;;;;
2021/07/04 01:11:04;;;;;;;5.3;3.9;;;;;;;17.04;84.92773;936.6696;;;;
2021/07/04 01:13:27;;;;;;;4.8;3.8;;;;;;;17.04;84.78809;936.6518;;;;
2021/07/04 01:16:02;;;;;;;5.5;3.7;;;;;;;17;84.53613;936.7085;;;;
2021/07/04 01:18:31;;;;;;;4.1;3.5;;;;;;;16.93;84.40625;936.5754;;;;
2021/07/04 01:20:58;;;;;;;5.5;3.5;;;;;;;16.92;84.4873;936.603;;;;
2021/07/04 01:23:22;;;;;;;4.1;3.7;;;;;;;16.94;84.66309;936.568;;;;
2021/07/04 01:25:46;;;;;;;3.7;3.3;;;;;;;16.98;83.6875;936.5366;;;;
2021/07/04 01:28:15;;;;;;;4;3.7;;;;;;;16.98;83.91895;936.5158;;;;
2021/07/04 01:30:40;;;;;;;5.1;3.6;;;;;;;16.96;83.95996;936.4953;;;;
2021/07/04 01:33:07;;;;;;;4.7;3.5;;;;;;;16.96;84.25;936.4486;;;;
2021/07/04 01:35:33;;;;;;;4.3;3.9;;;;;;;17.02;84.05469;936.4221;;;;
2021/07/04 01:37:58;;;;;;;4.5;3.6;;;;;;;17.04;84.74219;936.3678;;;;
2021/07/04 01:40:24;;;;;;;3.8;3.4;;;;;;;17.08;84.29688;936.4419;;;;
2021/07/04 01:42:51;;;;;;;5;3.9;;;;;;;17;84.64063;936.3908;;;;
2021/07/04 01:45:16;;;;;;;5.4;4.1;;;;;;;17.09;83.71777;936.4402;;;;
2021/07/04 01:47:42;;;;;;;4.1;3.6;;;;;;;16.98;84.05762;936.4015;;;;
2021/07/04 01:50:09;;;;;;;4.5;3.7;;;;;;;16.9;84.2041;936.4409;;;;
2021/07/04 01:52:34;;;;;;;5.2;3.7;;;;;;;16.87;84.59277;936.4108;;;;
2021/07/04 01:54:59;;;;;;;4.5;3.7;;;;;;;16.7;85.09277;936.4512;;;;
2021/07/04 01:57:24;;;;;;;3.9;3.5;;;;;;;16.36;86.71777;936.4663;;;;
2021/07/04 01:59:56;;;;;;;4;3.3;;;;;;;16.36;86.98145;936.4472;;;;
2021/07/04 02:02:18;;;;;;;3.8;3.5;;;;;;;16.51;85.99219;936.4202;;;;
2021/07/04 02:04:46;;;;;;;3.6;3.3;;;;;;;16.59;85.75488;936.4515;;;;
2021/07/04 02:07:11;;;;;;;3.8;3.4;;;;;;;16.69;85.79785;936.5447;;;;
2021/07/04 02:09:38;;;;;;;5;3.5;;;;;;;16.76;85.40625;936.5306;;;;
2021/07/04 02:12:03;;;;;;;4.3;3.3;;;;;;;16.45;86.15527;936.4219;;;;
2021/07/04 02:14:32;;;;;;;5.1;3.7;;;;;;;16.61;85.60742;936.4296;;;;
2021/07/04 02:17:05;;;;;;;3.9;3.2;;;;;;;16.7;85.64844;936.4238;;;;
2021/07/04 02:19:30;;;;;;;4.2;3.7;;;;;;;16.74;85.25195;936.4224;;;;
2021/07/04 02:21:57;;;;;;;4.1;3.6;;;;;;;16.8;85.05371;936.3939;;;;
2021/07/04 02:24:28;;;;;;;3.7;3.4;;;;;;;16.81;84.98828;936.4436;;;;
2021/07/04 02:26:57;;;;;;;4.5;3.4;;;;;;;16.81;85.18359;936.4428;;;;
2021/07/04 02:29:23;;;;;;;3.8;3.4;;;;;;;16.88;84.11816;936.3536;;;;
2021/07/04 02:31:49;;;;;;;4.1;3.3;;;;;;;16.89;83.87793;936.375;;;;
2021/07/04 02:34:14;;;;;;;3.7;3.4;;;;;;;16.86;84.19629;936.3692;;;;
2021/07/04 02:36:43;;;;;;;4.5;3.3;;;;;;;16.91;83.87988;936.3555;;;;
2021/07/04 02:39:13;;;;;;;3.4;3.1;;;;;;;16.92;84.31348;936.3624;;;;
2021/07/04 02:41:37;;;;;;;4.9;3.8;;;;;;;16.95;83.4502;936.3748;;;;
2021/07/04 02:44:03;;;;;;;3.6;3.3;;;;;;;16.92;83.35059;936.3376;;;;
2021/07/04 02:46:31;;;;;;;3.9;3.4;;;;;;;16.76;83.8291;936.2742;;;;
2021/07/04 02:48:56;;;;;;;4.5;3.2;;;;;;;16.78;84.08789;936.3011;;;;
2021/07/04 02:51:22;;;;;;;3.9;3.2;;;;;;;16.81;84.17383;936.2242;;;;
2021/07/04 02:53:50;;;;;;;3.8;3.4;;;;;;;16.79;83.72168;936.222;;;;
2021/07/04 02:56:15;;;;;;;3.9;3.2;;;;;;;16.64;84.30664;936.2115;;;;
2021/07/04 02:58:43;;;;;;;5;3.4;;;;;;;16.53;84.79199;936.2687;;;;
2021/07/04 03:01:08;;;;;;;5.7;3.6;;;;;;;16.36;85.72266;936.2115;;;;
2021/07/04 03:03:38;;;;;;;3.5;3.2;;;;;;;16.48;85.25781;936.2349;;;;
2021/07/04 03:06:07;;;;;;;5.2;3.4;;;;;;;16.56;85.18262;936.2375;;;;
2021/07/04 03:08:32;;;;;;;4.7;3.7;;;;;;;16.48;84.59766;936.2389;;;;
2021/07/04 03:10:58;;;;;;;6.7;4.8;;;;;;;;;;;;;
2021/07/04 03:13:23;;;;;;;4;3.5;;;;;;;;;;;;;
2021/07/04 03:15:55;;;;;;;3.9;3.5;;;;;;;;;;;;;
2021/07/04 03:18:21;;;;;;;5.1;3.6;;;;;;;;;;;;;
2021/07/04 03:20:46;;;;;;;6.8;3.8;;;;;;;;;;;;;
2021/07/04 03:23:12;;;;;;;6.4;4.2;;;;;;;;;;;;;
2021/07/04 03:25:37;;;;;;;5.8;3.8;;;;;;;;;;;;;
2021/07/04 03:28:02;;;;;;;4.8;4;;;;;;;;;;;;;
2021/07/04 03:30:27;;;;;;;4.8;3.4;;;;;;;;;;;;;
2021/07/04 03:32:52;;;;;;;4.6;3.5;;;;;;;;;;;;;
2021/07/04 03:35:18;;;;;;;3.5;3.1;;;;;;;;;;;;;
2021/07/04 03:37:43;;;;;;;3.8;3.5;;;;;;;;;;;;;
2021/07/04 03:40:10;;;;;;;4.2;3.6;;;;;;;;;;;;;
2021/07/04 03:42:35;;;;;;;4.2;3.4;;;;;;;;;;;;;
2021/07/04 03:45:00;;;;;;;3.5;3.2;;;;;;;;;;;;;
2021/07/04 03:47:26;;;;;;;3.5;3.2;;;;;;;;;;;;;
2021/07/04 03:49:51;;;;;;;5;3.4;;;;;;;;;;;;;
2021/07/04 03:52:16;;;;;;;3.5;3.2;;;;;;;;;;;;;
2021/07/04 03:54:41;;;;;;;5.6;3.3;;;;;;;;;;;;;
2021/07/04 03:57:21;;;;;;;6.5;3.2;;;;;;;;;;;;;
2021/07/04 03:59:31;;;;;;;3.5;3.2;;;;;;;;;;;;;
2021/07/04 04:02:34;;;;;;;5;3.3;;;;;;;16.32;86.15332;936.0636;;;;
2021/07/04 04:04:58;;;;;;;3.9;3.1;;;;;;;16.51;85.51855;936.1725;;;;
2021/07/04 04:07:24;;;;;;;4.5;3.5;;;;;;;16.64;85.40625;936.1496;;;;
2021/07/04 04:09:51;;;;;;;7.1;3.9;;;;;;;16.65;84.45703;936.1439;;;;
2021/07/04 04:12:16;;;;;;;3.6;3.3;;;;;;;16.7;83.88867;936.1151;;;;
2021/07/04 04:14:41;;;;;;;4.6;3.3;;;;;;;16.77;84.20313;936.2056;;;;
2021/07/04 04:17:10;;;;;;;4.2;2.9;;;;;;;16.73;84.09082;936.1588;;;;
2021/07/04 04:19:38;;;;;;;3.5;3.2;;;;;;;16.66;84.13672;936.1576;;;;
2021/07/04 04:22:03;;;;;;;3.3;3;;;;;;;16.6;84.50488;936.1646;;;;
2021/07/04 04:24:30;;;;;;;5.2;3.2;;;;;;;16.64;84.38574;936.1248;;;;
2021/07/04 04:26:56;;;;;;;4.9;3.5;;;;;;;16.86;83.61621;936.0917;;;;
2021/07/04 04:29:21;;;;;;;3.5;2.9;;;;;;;16.93;83.27148;936.1498;;;;
2021/07/04 04:31:49;;;;;;;4.3;3.3;;;;;;;17.05;82.72754;936.1431;;;;
2021/07/04 04:34:14;;;;;;;3.7;3.4;;;;;;;17.17;82.7959;936.1344;;;;
2021/07/04 04:36:41;;;;;;;3.5;3.1;;;;;;;17.25;81.09375;936.0616;;;;
2021/07/04 04:39:06;;;;;;;4.4;3.2;;;;;;;17.23;80.85938;936.0442;;;;
2021/07/04 04:41:36;;;;;;;5.7;3;;;;;;;17.15;80.50879;936.0897;;;;
2021/07/04 04:44:02;;;;;;;4.2;3.5;;;;;;;17.27;79.78613;936.0435;;;;
2021/07/04 04:46:28;;;;;;;4.5;3.3;;;;;;;17.33;79.62598;936.0108;;;;
2021/07/04 04:48:54;;;;;;;6.2;5.2;;;;;;;17.37;80.2002;935.9818;;;;
2021/07/04 04:51:19;;;;;;;5.5;3.7;;;;;;;17.27;80.2998;936.0426;;;;
2021/07/04 04:53:45;;;;;;;4.5;3.4;;;;;;;17.26;80.5166;936.0356;;;;
2021/07/04 04:56:11;;;;;;;3.6;3.1;;;;;;;17.34;80.83203;936.0244;;;;
2021/07/04 04:58:37;;;;;;;4.7;3.4;;;;;;;17.43;80.4668;936.059;;;;
2021/07/04 05:01:02;;;;;;;4.3;3.2;;;;;;;17.53;80.625;936.0408;;;;
2021/07/04 05:03:29;;;;;;;3.8;3.4;;;;;;;17.39;80.11133;936.0226;;;;
2021/07/04 05:05:54;;;;;;;4.4;3.2;;;;;;;17.39;80.91113;935.9959;;;;
2021/07/04 05:08:20;;;;;;;4.4;3.5;;;;;;;17.52;81.66504;936.0066;;;;
2021/07/04 05:10:48;;;;;;;3.6;3.2;;;;;;;17.63;80.31836;935.9907;;;;
2021/07/04 05:13:13;;;;;;;4;3.2;;;;;;;17.63;80.49316;935.9406;;;;
2021/07/04 05:15:42;;;;;;;4.4;3.1;;;;;;;17.69;79.77246;935.8705;;;;
2021/07/04 05:18:07;;;;;;;3.2;2.9;;;;;;;17.76;78.75195;935.8504;;;;
2021/07/04 05:20:34;;;;;;;3.5;3.2;;;;;;;17.77;78.63574;935.827;;;;
2021/07/04 05:22:59;;;;;;;3.8;3;;;;;;;17.66;78.89648;935.8621;;;;
2021/07/04 05:25:26;;;;;;;3.3;2.9;;;;;;;17.59;78.99805;935.8794;;;;
2021/07/04 05:27:51;;;;;;;3.9;3.2;;;;;;;17.51;79.3916;935.8722;;;;
2021/07/04 05:30:18;;;;;;;4.6;3;;;;;;;17.58;79.09082;935.7991;;;;
2021/07/04 05:32:43;;;;;;;5.6;3.4;;;;;;;17.81;79.34082;935.7615;;;;
2021/07/04 05:35:12;;;;;;;7;4.5;;;;;;;18.05;79.44141;935.7598;;;;
2021/07/04 05:37:39;;;;;;;6.2;4.7;;;;;;;18.27;77.09961;935.7162;;;;
2021/07/04 05:40:10;;;;;;;4.3;3.4;;;;;;;18.35;77.37988;935.6919;;;;
2021/07/04 05:42:43;;;;;;;4.9;3.3;;;;;;;18.62;76.90527;935.7065;;;;
2021/07/04 05:45:11;;;;;;;3;2.7;;;;;;;19.06;73.32715;935.6788;;;;
2021/07/04 05:47:36;;;;;;;3.9;2.8;;;;;;;19.57;72.2334;935.552;;;;
2021/07/04 05:50:01;;;;;;;4.1;2.8;;;;;;;20.1;70.44043;935.5952;;;;
2021/07/04 05:52:26;;;;;;;4.8;2.7;;;;;;;19.78;69.24707;935.6021;;;;
2021/07/04 05:54:52;;;;;;;3.3;2.7;;;;;;;19.75;69.20801;935.6142;;;;
2021/07/04 05:57:17;;;;;;;3.2;2.6;;;;;;;19.38;69.92871;935.6122;;;;
2021/07/04 05:59:43;;;;;;;3.5;2.8;;;;;;;19.19;70.25977;935.4954;;;;
2021/07/04 06:02:08;;;;;;;3.3;3;;;;;;;19.26;72.41602;935.5178;;;;
2021/07/04 06:04:34;;;;;;;3;2.7;;;;;;;19.46;70.4668;935.543;;;;
2021/07/04 06:06:59;;;;;;;6.6;2.8;;;;;;;19.12;72.19434;935.572;;;;
2021/07/04 06:09:27;;;;;;;4.7;3.3;;;;;;;19.1;72.44629;935.4412;;;;
2021/07/04 06:11:52;;;;;;;4.1;3;;;;;;;19.18;72.25195;935.4406;;;;
2021/07/04 06:14:19;;;;;;;3.5;2.8;;;;;;;19.19;70.2832;935.3872;;;;
2021/07/04 06:16:52;;;;;;;2.8;2.6;;;;;;;18.94;71.4082;935.2728;;;;
2021/07/04 06:19:21;;;;;;;3.2;2.9;;;;;;;19.17;71.86426;935.3175;;;;
2021/07/04 06:21:46;;;;;;;3.8;2.9;;;;;;;19.44;70.74414;935.2972;;;;
2021/07/04 06:24:12;;;;;;;3.7;2.8;;;;;;;19.66;70.33496;935.2493;;;;
2021/07/04 06:26:37;;;;;;;3.9;2.7;;;;;;;20.27;69.125;935.2681;;;;
2021/07/04 06:29:05;;;;;;;3;2.3;;;;;;;21.82;61.64746;935.2399;;;;
2021/07/04 06:31:30;;;;;;;2.7;2.5;;;;;;;22.38;59.75391;935.2877;;;;
2021/07/04 06:33:57;;;;;;;2.6;2.4;;;;;;;22.88;56.90918;935.2735;;;;
2021/07/04 06:36:22;;;;;;;2.6;2.4;;;;;;;23.44;56.5332;935.2628;;;;
2021/07/04 06:38:49;;;;;;;3.1;2.3;;;;;;;22.18;57.14844;935.2645;;;;
2021/07/04 06:41:14;;;;;;;3.7;2.3;;;;;;;23.67;55.31641;935.2303;;;;
2021/07/04 06:43:42;;;;;;;2.5;2.3;;;;;;;24.33;52.31152;935.1969;;;;
2021/07/04 06:46:06;;;;;;;3.9;2.2;;;;;;;24.01;53.26172;935.1944;;;;
2021/07/04 06:48:31;;;;;;;2.6;2.4;;;;;;;22.78;55.85254;935.1764;;;;
2021/07/04 06:51:00;;;;;;;3.3;2.4;;;;;;;20.84;62.25977;935.1666;;;;
2021/07/04 06:53:25;;;;;;;3.4;2.7;;;;;;;22;60.22949;935.2291;;;;
2021/07/04 06:55:54;;;;;;;2.9;2.3;;;;;;;22.98;55.40723;935.1311;;;;
2021/07/04 06:58:19;;;;;;;3.3;2.3;;;;;;;24.24;52.47754;935.1774;;;;
2021/07/04 07:00:45;;;;;;;3.6;2.6;;;;;;;23.98;52.94141;935.267;;;;
2021/07/04 07:03:11;;;;;;;3.2;2.4;;;;;;;22.52;55.77246;935.2405;;;;
2021/07/04 07:05:37;;;;;;;3.7;2.6;;;;;;;22.46;55.56348;935.1816;;;;
2021/07/04 07:08:02;;;;;;;2.8;2.5;;;;;;;22.46;56.44531;935.1497;;;;
2021/07/04 07:10:29;;;;;;;2.5;2.3;;;;;;;23.75;54.58496;935.1794;;;;
2021/07/04 07:12:54;;;;;;;2.6;2.4;;;;;;;23.71;53.48535;935.1972;;;;
2021/07/04 07:15:27;;;;;;;3.9;2.5;;;;;;;26.39;49.04883;935.2364;;;;
2021/07/04 07:17:52;;;;;;;2.1;1.9;;;;;;;28.06;43.63574;935.168;;;;
2021/07/04 07:20:20;;;;;;;2.4;2.2;;;;;;;30.18;38.97168;935.1467;;;;
2021/07/04 07:22:45;;;;;;;1.8;1.7;;;;;;;29.64;37.9834;935.0538;;;;
2021/07/04 07:25:14;;;;;;;4.4;2.1;;;;;;;27.87;42.08594;935.0372;;;;
2021/07/04 07:27:39;;;;;;;3.7;2.1;;;;;;;27.78;43.66797;934.933;;;;
2021/07/04 07:30:07;;;;;;;2.2;1.9;;;;;;;28;42.35938;934.9276;;;;
2021/07/04 07:32:32;;;;;;;1.8;1.7;;;;;;;29.01;39.2627;934.9587;;;;
2021/07/04 07:34:57;;;;;;;2.4;2.1;;;;;;;29.05;37.24316;934.9133;;;;
2021/07/04 07:37:24;;;;;;;4.5;1.9;;;;;;;26.75;44.76367;934.8375;;;;
2021/07/04 07:39:48;;;;;;;2.9;2.2;;;;;;;25.36;45.14551;934.7932;;;;
2021/07/04 07:42:13;;;;;;;2.4;1.9;;;;;;;25.76;45.74219;934.663;;;;
2021/07/04 07:44:41;;;;;;;1.8;1.7;;;;;;;27.59;41.77441;934.5891;;;;
2021/07/04 07:47:06;;;;;;;2.2;1.9;;;;;;;29.66;39.66602;934.5789;;;;
2021/07/04 07:49:32;;;;;;;2.8;2.1;;;;;;;30.59;37.51367;934.4525;;;;
2021/07/04 07:51:59;;;;;;;1.9;1.8;;;;;;;27.8;44.0752;934.3578;;;;
2021/07/04 07:54:23;;;;;;;2;1.9;;;;;;;27.87;41.68262;934.313;;;;
2021/07/04 07:56:49;;;;;;;2.1;1.9;;;;;;;27.63;43.02539;934.2679;;;;
2021/07/04 07:59:15;;;;;;;2.5;2.3;;;;;;;27.98;44.1748;934.2354;;;;
2021/07/04 08:01:41;;;;;;;2.6;1.9;;;;;;;28.75;41.18066;934.2414;;;;
2021/07/04 08:04:07;;;;;;;3.3;1.8;;;;;;;30.59;37.42969;934.0886;;;;
2021/07/04 08:06:32;;;;;;;1.7;1.6;;;;;;;30.74;38.12402;934.053;;;;
2021/07/04 08:08:58;;;;;;;1.8;1.7;;;;;;;32.57;33.80176;934.0898;;;;
2021/07/04 08:11:23;;;;;;;1.8;1.7;;;;;;;32.52;34.39844;934.0695;;;;
2021/07/04 08:13:51;;;;;;;2;1.7;;;;;;;32.61;34.22559;933.9678;;;;
2021/07/04 08:16:27;;;;;;;2;1.3;;;;;;;33.48;32.37891;933.9359;;;;
2021/07/04 08:18:57;;;;;;;2;1.8;;;;;;;32.85;34.21875;933.9314;;;;
2021/07/04 08:21:22;;;;;;;1.4;1.3;;;;;;;33.12;30.09473;933.8467;;;;
2021/07/04 08:23:48;;;;;;;1.7;1.6;;;;;;;32.37;35.3584;933.7786;;;;
2021/07/04 08:26:13;;;;;;;1.8;1.6;;;;;;;30.97;37.44922;933.7645;;;;
2021/07/04 08:28:40;;;;;;;1.8;1.7;;;;;;;31.97;37.93945;933.7842;;;;
2021/07/04 08:31:05;;;;;;;1.6;1.5;;;;;;;32.58;35.69824;933.8466;;;;
2021/07/04 08:33:32;;;;;;;1.8;1.7;;;;;;;32.42;34.57031;933.8535;;;;
2021/07/04 08:35:57;;;;;;;1.6;1.5;;;;;;;30.33;37.62305;933.7721;;;;
2021/07/04 08:38:25;;;;;;;1.7;1.6;;;;;;;30.83;41.70605;933.7632;;;;
2021/07/04 08:40:50;;;;;;;1.7;1.6;;;;;;;30.74;37.33398;933.7498;;;;
2021/07/04 08:43:17;;;;;;;1.6;1.5;;;;;;;31.11;39.2793;933.808;;;;
2021/07/04 08:45:42;;;;;;;1.3;1.2;;;;;;;32.55;31.71191;933.8239;;;;
2021/07/04 08:48:09;;;;;;;1.5;1.4;;;;;;;31.91;34.24414;933.8145;;;;
2021/07/04 08:50:34;;;;;;;1.6;1.5;;;;;;;30.76;37.4082;933.84;;;;
2021/07/04 08:53:00;;;;;;;1.6;1.5;;;;;;;28.43;39.92773;933.9431;;;;
2021/07/04 08:55:25;;;;;;;1.7;1.6;;;;;;;26.85;46.03027;933.8997;;;;
2021/07/04 08:57:51;;;;;;;1.5;1.4;;;;;;;27.01;44.69629;933.8737;;;;
2021/07/04 09:00:16;;;;;;;1.7;1.6;;;;;;;27.17;44.01172;933.8761;;;;
2021/07/04 09:02:42;;;;;;;2.5;1.7;;;;;;;26.6;45.62695;933.8425;;;;
2021/07/04 09:05:07;;;;;;;1.6;1.5;;;;;;;26.18;48.75293;933.7786;;;;
2021/07/04 09:07:34;;;;;;;2.3;1.4;;;;;;;26.74;44.13574;933.7209;;;;
2021/07/04 09:09:59;;;;;;;1.4;1.3;;;;;;;26.75;45.51074;933.6267;;;;
2021/07/04 09:12:24;;;;;;;1.7;1.4;;;;;;;26.4;47.39258;933.6926;;;;
2021/07/04 09:14:49;;;;;;;1.6;1.5;;;;;;;25.78;50.60156;933.7111;;;;
2021/07/04 09:17:17;;;;;;;1.7;1.4;;;;;;;26.44;46.60352;933.6973;;;;
2021/07/04 09:19:42;;;;;;;1.3;1.2;;;;;;;25.86;48.56641;933.6193;;;;
2021/07/04 09:22:07;;;;;;;1.4;1.3;;;;;;;26.47;46.78516;933.5867;;;;
2021/07/04 09:24:32;;;;;;;1.9;1.7;;;;;;;26.8;46.00195;933.5603;;;;
2021/07/04 09:26:58;;;;;;;1.7;1.6;;;;;;;27.1;44.87109;933.5927;;;;
2021/07/04 09:29:23;;;;;;;1.6;1.5;;;;;;;26.59;45.82617;933.5543;;;;
2021/07/04 09:31:48;;;;;;;1.9;1.7;;;;;;;26.3;49.72559;933.6674;;;;
2021/07/04 09:34:13;;;;;;;1.7;1.6;;;;;;;26.04;52.0752;933.6469;;;;
2021/07/04 09:36:39;;;;;;;2.4;2.2;;;;;;;26.36;49.94434;933.6976;;;;
2021/07/04 09:39:04;;;;;;;1.9;1.8;;;;;;;26.07;52.72852;933.8175;;;;
2021/07/04 09:41:30;;;;;;;2.7;2;;;;;;;25.5;54.30273;933.7728;;;;
2021/07/04 09:43:57;;;;;;;2.6;2;;;;;;;25.69;54.03125;933.8269;;;;
2021/07/04 09:46:22;;;;;;;3.6;2.4;;;;;;;25.23;54.69531;933.774;;;;
2021/07/04 09:48:47;;;;;;;3.3;2.4;;;;;;;25.59;54.62012;933.7735;;;;
2021/07/04 09:51:14;;;;;;;2.4;2.2;;;;;;;25.21;55.3418;933.6864;;;;
2021/07/04 09:53:39;;;;;;;3;2.7;;;;;;;25.14;56.27832;933.6083;;;;
2021/07/04 09:56:04;;;;;;;2.5;2.3;;;;;;;25.32;53.41992;933.6412;;;;
2021/07/04 09:58:34;;;;;;;2.7;2.5;;;;;;;24.61;56.55273;933.6348;;;;
2021/07/04 10:00:59;;;;;;;2.7;2.5;;;;;;;24.68;56.69043;933.6699;;;;
2021/07/04 10:03:28;;;;;;;3.6;2.3;;;;;;;24.84;56.33398;933.6331;;;;
2021/07/04 10:05:53;;;;;;;2.5;2.3;;;;;;;24.85;55.74512;933.639;;;;
2021/07/04 10:08:18;;;;;;;3.2;2;;;;;;;24.45;57.52148;933.6824;;;;
2021/07/04 10:10:43;;;;;;;2.3;2.1;;;;;;;24.12;58.91699;933.6261;;;;
2021/07/04 10:13:08;;;;;;;2.7;2.3;;;;;;;24.36;58.78418;933.6227;;;;
2021/07/04 10:15:43;;;;;;;3.9;2.1;;;;;;;24.26;58.20508;933.5807;;;;
2021/07/04 10:18:09;;;;;;;5.8;2.2;;;;;;;24.31;59.24707;933.5159;;;;
2021/07/04 10:20:34;;;;;;;3.3;2.2;;;;;;;24.36;59.27832;933.5009;;;;
2021/07/04 10:22:59;;;;;;;3.1;2.3;;;;;;;24.41;60.80566;933.4797;;;;
2021/07/04 10:25:24;;;;;;;2;1.8;;;;;;;24.45;60.88086;933.5005;;;;
2021/07/04 10:27:53;;;;;;;2.3;2.1;;;;;;;24.86;61.92871;933.4548;;;;
2021/07/04 10:30:18;;;;;;;2.6;2;;;;;;;25.48;61.23535;933.3122;;;;
2021/07/04 10:32:47;;;;;;;2.5;2.2;;;;;;;26.06;59.58789;933.2726;;;;
2021/07/04 10:35:12;;;;;;;2.3;2.1;;;;;;;25.92;59.41504;933.2816;;;;
2021/07/04 10:37:38;;;;;;;2.4;2.2;;;;;;;26.11;60.39746;933.2953;;;;
2021/07/04 10:40:03;;;;;;;2.4;1.9;;;;;;;25.86;58.08203;933.2509;;;;
2021/07/04 10:42:28;;;;;;;1.9;1.8;;;;;;;26.49;54.70703;933.1747;;;;
2021/07/04 10:44:55;;;;;;;2.1;1.9;;;;;;;26.38;54.93066;933.1053;;;;
2021/07/04 10:47:23;;;;;;;3.1;2;;;;;;;26.81;54.98242;933.0675;;;;
2021/07/04 10:49:46;;;;;;;2;1.8;;;;;;;26.69;52.49316;933.0795;;;;
2021/07/04 10:52:14;;;;;;;2.1;1.9;;;;;;;26.62;51.73926;933.067;;;;
2021/07/04 10:54:39;;;;;;;1.8;1.7;;;;;;;26.67;51.78027;933.0367;;;;
2021/07/04 10:57:04;;;;;;;2.3;1.8;;;;;;;26.3;52.68359;933.0544;;;;
2021/07/04 10:59:29;;;;;;;1.8;1.7;;;;;;;25.47;54.0625;933.0544;;;;
2021/07/04 11:01:57;;;;;;;2.8;2.5;;;;;;;25.7;56.83203;933.0648;;;;
2021/07/04 11:04:22;;;;;;;3.1;2.8;;;;;;;25.32;57.56445;933.0843;;;;
2021/07/04 11:06:49;;;;;;;19.7;15.8;;;;;;;25.2;57.14746;933.0826;;;;
2021/07/04 11:09:14;;;;;;;2.5;2.3;;;;;;;25.32;55.86426;933.077;;;;
2021/07/04 11:11:39;;;;;;;2.2;2;;;;;;;25.42;58.02539;932.9925;;;;
2021/07/04 11:14:05;;;;;;;3.6;2.1;;;;;;;24.83;58.46875;933.0737;;;;
2021/07/04 11:16:36;;;;;;;2.8;2.2;;;;;;;24.18;60.67871;933.0881;;;;
2021/07/04 11:19:02;;;;;;;2.6;2.1;;;;;;;23.14;61.97168;933.0255;;;;
2021/07/04 11:21:30;;;;;;;2.9;2.1;;;;;;;22.76;62.66992;933.0526;;;;
2021/07/04 11:23:55;;;;;;;2.2;1.8;;;;;;;22.11;64.59473;933.0275;;;;
2021/07/04 11:26:20;;;;;;;2.1;1.7;;;;;;;21.77;66.11426;933.0369;;;;
2021/07/04 11:28:46;;;;;;;4.8;2.7;;;;;;;21.8;66.78613;933.1736;;;;
2021/07/04 11:31:12;;;;;;;9;7.6;;;;;;;22.18;64.04102;933.2491;;;;
2021/07/04 11:33:37;;;;;;;4.3;3.4;;;;;;;22.34;63.61914;933.1978;;;;
2021/07/04 11:36:02;;;;;;;2.3;1.7;;;;;;;22.07;65.89063;933.175;;;;
2021/07/04 11:38:27;;;;;;;1.8;1.5;;;;;;;21.97;65.75879;933.1632;;;;
2021/07/04 11:40:55;;;;;;;2.1;1.7;;;;;;;21.86;64.65137;933.1932;;;;
2021/07/04 11:43:25;;;;;;;3.2;2.7;;;;;;;21.92;65.43457;933.1818;;;;
2021/07/04 11:45:57;;;;;;;2.2;1.4;;;;;;;21.97;66.6377;933.1018;;;;
2021/07/04 11:48:33;;;;;;;1.3;1.2;;;;;;;22.23;66.61719;933.0354;;;;
2021/07/04 11:51:06;;;;;;;2;1.5;;;;;;;21.89;67.73828;933.033;;;;
2021/07/04 11:53:33;;;;;;;3.2;1.7;;;;;;;22.33;67.39453;933.0082;;;;
2021/07/04 11:56:02;;;;;;;1.6;1.3;;;;;;;22.16;66.18555;932.9984;;;;
2021/07/04 11:58:27;;;;;;;2.1;1.6;;;;;;;21.94;67.95703;932.9484;;;;
2021/07/04 12:00:52;;;;;;;2.2;1.5;;;;;;;22.35;66.86914;932.9695;;;;
2021/07/04 12:03:19;;;;;;;1.5;1.3;;;;;;;22.27;65.98926;932.9073;;;;
2021/07/04 12:05:49;;;;;;;1.4;1.3;;;;;;;22.41;63.45313;932.8684;;;;
2021/07/04 12:08:17;;;;;;;1.4;1.3;;;;;;;22.46;65.12598;932.8398;;;;
2021/07/04 12:10:48;;;;;;;1.4;1.3;;;;;;;22.7;63.69434;932.8422;;;;
2021/07/04 12:13:17;;;;;;;2;1.4;;;;;;;22.52;62.51855;932.8159;;;;
2021/07/04 12:15:55;;;;;;;2.4;1.5;;;;;;;22.44;63.57422;932.8155;;;;
2021/07/04 12:18:22;;;;;;;2.3;1.5;;;;;;;22.3;64.24707;932.775;;;;
2021/07/04 12:20:45;;;;;;;1.5;1.4;;;;;;;22.43;64.16016;932.7251;;;;
2021/07/04 12:23:14;;;;;;;1.5;1.4;;;;;;;22.52;66.80078;932.6514;;;;
2021/07/04 12:25:42;;;;;;;2.5;1.7;;;;;;;22.37;68.91406;932.6026;;;;
2021/07/04 12:28:08;;;;;;;1.9;1.4;;;;;;;22.3;68.54004;932.6923;;;;
2021/07/04 12:30:33;;;;;;;2.3;1.6;;;;;;;22.37;67.75293;932.6543;;;;
2021/07/04 12:32:58;;;;;;;2.2;1.4;;;;;;;22.53;66.81445;932.6672;;;;
2021/07/04 12:35:31;;;;;;;2.3;1.8;;;;;;;22.5;66.8584;932.6577;;;;
2021/07/04 12:37:57;;;;;;;1.6;1.5;;;;;;;22.43;66.01465;932.6519;;;;
2021/07/04 12:40:28;;;;;;;1.7;1.5;;;;;;;22.38;66.6748;932.5356;;;;
2021/07/04 12:42:53;;;;;;;1.6;1.5;;;;;;;22.46;68.4707;932.5466;;;;
2021/07/04 12:45:45;;;;;;;2.3;1.6;;;;;;;22.27;69.69629;932.5024;;;;
2021/07/04 12:48:11;;;;;;;1.4;1.3;;;;;;;22.12;68.46484;932.4617;;;;
2021/07/04 12:50:39;;;;;;;2.7;2;;;;;;;21.85;70.12207;932.4634;;;;
2021/07/04 12:53:05;;;;;;;2.6;1.6;;;;;;;22.21;66.32129;932.4381;;;;
2021/07/04 12:55:30;;;;;;;2.1;1.7;;;;;;;22.35;66.60059;932.4753;;;;
2021/07/04 12:57:55;;;;;;;1.8;1.7;;;;;;;22.55;65.80957;932.4673;;;;
2021/07/04 13:00:26;;;;;;;2;1.6;;;;;;;22.67;65.32227;932.5042;;;;
2021/07/04 13:02:52;;;;;;;2.2;1.8;;;;;;;22.63;65.12891;932.5213;;;;
2021/07/04 13:05:20;;;;;;;2.8;2.6;;;;;;;22.45;67.01465;932.4724;;;;
2021/07/04 13:07:45;;;;;;;3;2.4;;;;;;;22.59;68.02051;932.5005;;;;
2021/07/04 13:10:14;;;;;;;2.7;2.1;;;;;;;22.71;67.7334;932.5577;;;;
2021/07/04 13:12:39;;;;;;;2.3;2.1;;;;;;;22.73;67.15039;932.589;;;;
2021/07/04 13:15:04;;;;;;;4.7;2.3;;;;;;;22.33;67.51172;932.5639;;;;
2021/07/04 13:17:33;;;;;;;2.3;1.9;;;;;;;22.36;68.02051;932.6193;;;;
2021/07/04 13:19:59;;;;;;;2.4;2;;;;;;;22.35;70.26074;932.6003;;;;
2021/07/04 13:22:47;;;;;;;2.7;2.1;;;;;;;22.13;71.1748;932.5569;;;;
2021/07/04 13:25:12;;;;;;;2.3;1.9;;;;;;;22.19;70.1875;932.5193;;;;
2021/07/04 13:27:37;;;;;;;2.4;2.2;;;;;;;22.11;72.9082;932.6185;;;;
2021/07/04 13:30:08;;;;;;;2.4;2.2;;;;;;;22.07;71.37695;932.6254;;;;
2021/07/04 13:32:34;;;;;;;2.3;2.1;;;;;;;22.09;72.30566;932.6294;;;;
2021/07/04 13:34:58;;;;;;;3.7;2.5;;;;;;;21.86;72.53809;932.5915;;;;
2021/07/04 13:37:23;;;;;;;2.2;2;;;;;;;21.75;72.64844;932.5945;;;;
2021/07/04 13:39:50;;;;;;;3;2.3;;;;;;;21.94;72.91504;932.5801;;;;
2021/07/04 13:42:15;;;;;;;2.7;2.5;;;;;;;22.15;73.2998;932.6177;;;;
2021/07/04 13:44:40;;;;;;;3.7;2.3;;;;;;;21.74;75.00098;932.6248;;;;
2021/07/04 13:47:09;;;;;;;3.9;2.2;;;;;;;21.58;75.76953;932.6153;;;;
2021/07/04 13:49:34;;;;;;;3.2;2.4;;;;;;;21.71;76.26172;932.5485;;;;
2021/07/04 13:52:00;;;;;;;3.8;2.3;;;;;;;21.89;74.88477;932.5842;;;;
2021/07/04 13:54:25;;;;;;;3.8;2.6;;;;;;;21.92;74.23438;932.6361;;;;
2021/07/04 13:56:52;;;;;;;2.1;1.9;;;;;;;21.9;75.05078;932.6372;;;;
2021/07/04 13:59:17;;;;;;;2.3;2.1;;;;;;;21.48;74.1377;932.651;;;;
2021/07/04 14:01:43;;;;;;;4.3;2.2;;;;;;;21.31;76.0625;932.7477;;;;
2021/07/04 14:04:08;;;;;;;2.5;1.9;;;;;;;20.9;76.02832;932.7605;;;;
2021/07/04 14:06:34;;;;;;;2.7;2.1;;;;;;;21.19;77.77246;932.8184;;;;
2021/07/04 14:09:00;;;;;;;1.8;1.7;;;;;;;21.29;78.41211;932.8473;;;;
2021/07/04 14:11:27;;;;;;;2.6;2.3;;;;;;;21.37;79.13965;932.8187;;;;
2021/07/04 14:13:52;;;;;;;3.8;2.2;;;;;;;21.07;80.41016;932.8909;;;;
2021/07/04 14:16:27;;;;;;;3.3;2.3;;;;;;;20.84;81.68652;932.9524;;;;
2021/07/04 14:18:57;;;;;;;3.6;2.7;;;;;;;20.89;82.11816;932.9285;;;;
2021/07/04 14:21:22;;;;;;;6.5;2.7;;;;;;;20.68;83.33008;932.9711;;;;
2021/07/04 14:23:49;;;;;;;4.6;2.5;;;;;;;20.73;83.53516;932.8981;;;;
2021/07/04 14:26:14;;;;;;;2.5;2.2;;;;;;;20.77;81.66309;933.0042;;;;
2021/07/04 14:28:44;;;;;;;3.8;2.7;;;;;;;20.79;80.67285;933.038;;;;
2021/07/04 14:31:09;;;;;;;3;2.5;;;;;;;20.69;83.37793;933.0748;;;;
2021/07/04 14:33:38;;;;;;;3.8;2.6;;;;;;;20.62;82.20801;932.991;;;;
2021/07/04 14:36:07;;;;;;;2.7;2.5;;;;;;;20.17;82.12207;933.073;;;;